createdAt,value
2022-11-24T00:01:15.585Z,100219.75
2022-11-24T00:03:43.815Z,100218.22
2022-11-24T00:06:13.459Z,100220.09
2022-11-24T00:08:42.178Z,100223.09
2022-11-24T00:11:11.747Z,100225.34
2022-11-24T00:13:41.439Z,100234.72
2022-11-24T00:16:19.545Z,100241.09
2022-11-24T00:18:47.996Z,100235.09
2022-11-24T00:21:15.918Z,100245.25
2022-11-24T00:23:42.754Z,100235.88
2022-11-24T00:26:18.267Z,100240.72
2022-11-24T00:28:46.171Z,100241.47
2022-11-24T00:31:20.292Z,100237.72
2022-11-24T00:33:48.882Z,100234.75
2022-11-24T00:36:16.650Z,100223.16
2022-11-24T00:38:43.590Z,100226.91
2022-11-24T00:41:10.391Z,100228.38
2022-11-24T00:43:37.015Z,100236.25
2022-11-24T00:46:04.045Z,100236.25
2022-11-24T00:48:31.881Z,100238.88
2022-11-24T00:51:03.777Z,100235.13
2022-11-24T00:53:30.772Z,100241.50
2022-11-24T00:55:57.412Z,100245.25
2022-11-24T00:58:24.895Z,100245.25
2022-11-24T01:00:52.406Z,100252.38
2022-11-24T01:03:20.848Z,100248.63
2022-11-24T01:05:47.584Z,100256.88
2022-11-24T01:08:14.244Z,100262.13
2022-11-24T01:10:40.889Z,100275.63
2022-11-24T01:13:07.568Z,100268.88
2022-11-24T01:15:35.739Z,100263.63
2022-11-24T01:18:02.868Z,100267.00
2022-11-24T01:20:30.400Z,100270.00
2022-11-24T01:22:56.987Z,100270.75
2022-11-24T01:25:23.804Z,100278.63
2022-11-24T01:27:50.359Z,100268.88
2022-11-24T01:30:17.165Z,100277.88
2022-11-24T01:32:43.714Z,100268.53
2022-11-24T01:35:10.526Z,100271.50
2022-11-24T01:37:37.063Z,100267.78
2022-11-24T01:40:03.989Z,100268.91
2022-11-24T01:42:59.704Z,100262.88
2022-11-24T01:45:34.102Z,100262.88
2022-11-24T01:48:04.618Z,100261.78
2022-11-24T01:50:32.652Z,100270.75
2022-11-24T01:52:59.502Z,100275.66
2022-11-24T01:55:31.528Z,100276.00
2022-11-24T01:58:06.257Z,100280.50
2022-11-24T02:00:35.399Z,100285.41
2022-11-24T02:03:02.189Z,100292.88
2022-11-24T02:05:38.998Z,100295.50
2022-11-24T02:08:10.844Z,100298.13
2022-11-24T02:10:37.933Z,100300.00
2022-11-24T02:13:04.971Z,100310.13
2022-11-24T02:15:32.321Z,100311.25
2022-11-24T02:17:59.196Z,100310.91
2022-11-24T02:20:26.523Z,100315.38
2022-11-24T02:23:06.887Z,100316.88
2022-11-24T02:25:42.511Z,100308.63
2022-11-24T02:28:15.308Z,100309.38
2022-11-24T02:30:42.356Z,100309.38
2022-11-24T02:33:11.286Z,100313.13
2022-11-24T02:35:37.894Z,100318.38
2022-11-24T02:38:04.567Z,100317.63
2022-11-24T02:40:31.692Z,100319.50
2022-11-24T02:43:04.620Z,100316.16
2022-11-24T02:45:31.953Z,100327.38
2022-11-24T02:47:58.796Z,100325.50
2022-11-24T02:50:25.946Z,100323.63
2022-11-24T02:52:52.532Z,100329.25
2022-11-24T02:55:20.311Z,100342.38
2022-11-24T02:57:47.325Z,100338.25
2022-11-24T03:00:14.407Z,100339.00
2022-11-24T03:02:41.036Z,100343.09
2022-11-24T03:05:08.360Z,100339.75
2022-11-24T03:07:35.009Z,100330.00
2022-11-24T03:10:01.574Z,100338.59
2022-11-24T03:12:28.099Z,100343.50
2022-11-24T03:14:54.660Z,100337.84
2022-11-24T03:17:21.328Z,100342.38
2022-11-24T03:19:47.856Z,100335.63
2022-11-24T03:22:14.746Z,100345.72
2022-11-24T03:24:41.328Z,100339.00
2022-11-24T03:27:07.964Z,100340.09
2022-11-24T03:29:34.590Z,100341.22
2022-11-24T03:32:01.705Z,100336.38
2022-11-24T03:34:28.252Z,100332.22
2022-11-24T03:36:54.800Z,100331.47
2022-11-24T03:39:21.397Z,100337.84
2022-11-24T03:41:47.976Z,100342.72
2022-11-24T03:44:14.572Z,100349.09
2022-11-24T03:46:41.159Z,100347.22
2022-11-24T03:49:07.744Z,100343.84
2022-11-24T03:51:34.341Z,100351.72
2022-11-24T03:54:00.886Z,100358.50
2022-11-24T03:56:28.000Z,100359.59
2022-11-24T03:58:54.645Z,100357.38
2022-11-24T04:01:21.260Z,100363.38
2022-11-24T04:03:47.979Z,100361.88
2022-11-24T04:06:14.551Z,100368.63
2022-11-24T04:08:41.112Z,100373.13
2022-11-24T04:11:07.686Z,100369.00
2022-11-24T04:13:34.295Z,100376.13
2022-11-24T04:16:05.098Z,100371.63
2022-11-24T04:18:31.604Z,100379.88
2022-11-24T04:20:58.103Z,100381.38
2022-11-24T04:23:24.613Z,100388.09
2022-11-24T04:25:51.136Z,100391.84
2022-11-24T04:28:17.637Z,100394.47
2022-11-24T04:30:45.124Z,100393.34
2022-11-24T04:33:12.411Z,100410.97
2022-11-24T04:35:38.928Z,100403.84
2022-11-24T04:38:05.480Z,100412.84
2022-11-24T04:40:31.983Z,100418.09
2022-11-24T04:42:58.551Z,100419.59
2022-11-24T04:45:25.095Z,100426.34
2022-11-24T04:47:51.824Z,100422.59
2022-11-24T04:50:18.577Z,100429.72
2022-11-24T04:52:45.448Z,100425.97
2022-11-24T04:55:12.130Z,100432.72
2022-11-24T04:57:38.918Z,100439.09
2022-11-24T05:00:06.327Z,100445.84
2022-11-24T05:02:32.819Z,100450.31
2022-11-24T05:04:59.312Z,100445.84
2022-11-24T05:07:25.854Z,100454.06
2022-11-24T05:10:10.970Z,100454.06
2022-11-24T05:12:37.522Z,100464.19
2022-11-24T05:15:05.360Z,100464.94
2022-11-24T05:17:34.118Z,100481.06
2022-11-24T05:20:00.960Z,100479.94
2022-11-24T05:22:29.241Z,100484.81
2022-11-24T05:24:55.827Z,100493.06
2022-11-24T05:27:22.733Z,100499.06
2022-11-24T05:29:49.235Z,100506.91
2022-11-24T05:32:15.715Z,100509.91
2022-11-24T05:34:42.208Z,100511.03
2022-11-24T05:37:09.019Z,100504.66
2022-11-24T05:39:36.696Z,100513.28
2022-11-24T05:42:25.246Z,100524.16
2022-11-24T05:44:52.663Z,100515.53
2022-11-24T05:47:19.580Z,100529.41
2022-11-24T05:49:46.017Z,100530.91
2022-11-24T05:52:12.711Z,100534.66
2022-11-24T05:54:39.186Z,100537.28
2022-11-24T05:57:05.664Z,100543.28
2022-11-24T05:59:32.134Z,100557.16
2022-11-24T06:01:58.780Z,100550.41
2022-11-24T06:04:25.373Z,100550.41
2022-11-24T06:06:51.820Z,100553.03
2022-11-24T06:09:18.408Z,100553.78
2022-11-24T06:11:44.807Z,100563.16
2022-11-24T06:14:11.723Z,100563.91
2022-11-24T06:16:38.499Z,100570.25
2022-11-24T06:19:05.068Z,100577.00
2022-11-24T06:21:31.862Z,100578.88
2022-11-24T06:23:58.577Z,100584.88
2022-11-24T06:26:25.007Z,100590.13
2022-11-24T06:28:51.450Z,100586.75
2022-11-24T06:31:18.153Z,100597.63
2022-11-24T06:33:44.684Z,100606.63
2022-11-24T06:36:14.197Z,100608.13
2022-11-24T06:38:40.796Z,100620.50
2022-11-24T06:41:11.603Z,100630.22
2022-11-24T06:43:38.218Z,100624.63
2022-11-24T06:46:05.209Z,100635.47
2022-11-24T06:48:32.152Z,100645.97
2022-11-24T06:51:03.247Z,100647.84
2022-11-24T06:53:33.360Z,100645.22
2022-11-24T06:56:01.183Z,100654.97
2022-11-24T06:58:28.052Z,100659.84
2022-11-24T07:00:54.515Z,100665.47
2022-11-24T07:03:21.474Z,100671.47
2022-11-24T07:05:48.113Z,100674.09
2022-11-24T07:08:18.031Z,100685.31
2022-11-24T07:10:44.903Z,100681.19
2022-11-24T07:13:11.382Z,100699.56
2022-11-24T07:15:37.927Z,100701.06
2022-11-24T07:18:04.452Z,100703.69
2022-11-24T07:20:31.063Z,100709.31
2022-11-24T07:22:58.416Z,100710.44
2022-11-24T07:25:25.668Z,100713.06
2022-11-24T07:27:59.283Z,100720.94
2022-11-24T07:30:27.462Z,100727.69
2022-11-24T07:33:01.299Z,100729.94
2022-11-24T07:35:28.713Z,100730.69
2022-11-24T07:38:00.041Z,100735.56
2022-11-24T07:40:26.909Z,100749.84
2022-11-24T07:42:54.027Z,100756.19
2022-11-24T07:45:20.762Z,100759.56
2022-11-24T07:47:47.204Z,100763.69
2022-11-24T07:50:13.776Z,100774.56
2022-11-24T07:52:40.367Z,100774.56
2022-11-24T07:55:07.830Z,100782.84
2022-11-24T07:57:34.834Z,100774.53
2022-11-24T08:00:01.340Z,100788.78
2022-11-24T08:02:27.810Z,100795.91
2022-11-24T08:04:54.301Z,100808.28
2022-11-24T08:07:20.841Z,100816.91
2022-11-24T08:09:47.470Z,100816.16
2022-11-24T08:12:13.920Z,100824.00
2022-11-24T08:14:40.327Z,100821.03
2022-11-24T08:17:06.805Z,100818.00
2022-11-24T08:19:34.336Z,100825.88
2022-11-24T08:22:01.028Z,100820.63
2022-11-24T08:24:29.954Z,100829.25
2022-11-24T08:26:56.368Z,100839.41
2022-11-24T08:29:22.868Z,100836.38
2022-11-24T08:31:49.337Z,100833.41
2022-11-24T08:34:15.790Z,100839.75
2022-11-24T08:36:42.242Z,100839.00
2022-11-24T08:39:11.966Z,100839.41
2022-11-24T08:41:38.495Z,100839.41
2022-11-24T08:44:04.952Z,100847.28
2022-11-24T08:46:31.530Z,100848.03
2022-11-24T08:48:58.011Z,100845.00
2022-11-24T08:51:26.166Z,100852.88
2022-11-24T08:53:58.140Z,100857.78
2022-11-24T08:56:26.383Z,100863.38
2022-11-24T08:58:53.516Z,100860.41
2022-11-24T09:01:20.215Z,100861.88
2022-11-24T09:03:50.994Z,100867.88
2022-11-24T09:06:19.599Z,100864.50
2022-11-24T09:08:46.079Z,100869.38
2022-11-24T09:11:15.287Z,100869.38
2022-11-24T09:13:42.168Z,100879.13
2022-11-24T09:16:08.894Z,100880.25
2022-11-24T09:18:35.782Z,100882.88
2022-11-24T09:21:15.501Z,100878.38
2022-11-24T09:23:42.803Z,100885.88
2022-11-24T09:26:18.258Z,100885.13
2022-11-24T09:28:45.825Z,100891.50
2022-11-24T09:31:14.318Z,100903.09
2022-11-24T09:33:41.639Z,100896.00
2022-11-24T09:36:08.720Z,100900.47
2022-11-24T09:38:35.481Z,100900.88
2022-11-24T09:41:23.019Z,100906.13
2022-11-24T09:44:26.969Z,100908.00
2022-11-24T09:47:32.619Z,100929.72
2022-11-24T09:50:03.467Z,100925.59
2022-11-24T09:52:40.521Z,100936.09
2022-11-24T09:55:34.156Z,100930.84
2022-11-24T09:58:42.455Z,100942.50
2022-11-24T10:01:21.496Z,100937.59
2022-11-24T10:03:50.795Z,100941.34
2022-11-24T10:06:34.758Z,100936.84
2022-11-24T10:09:10.624Z,100933.88
2022-11-24T10:12:02.021Z,100937.59
2022-11-24T10:14:31.385Z,100952.66
2022-11-24T10:17:22.965Z,100958.28
2022-11-24T10:20:03.502Z,100968.78
2022-11-24T10:23:05.094Z,100963.16
2022-11-24T10:25:44.240Z,100955.66
2022-11-24T10:28:14.179Z,100961.66
2022-11-24T10:30:41.170Z,100961.97
2022-11-24T10:33:19.517Z,100962.34
2022-11-24T10:36:00.563Z,100972.09
2022-11-24T10:38:33.887Z,100977.34
2022-11-24T10:41:05.367Z,100982.97
2022-11-24T10:43:31.844Z,100986.34
2022-11-24T10:46:12.392Z,100983.72
2022-11-24T10:48:45.627Z,100988.22
2022-11-24T10:51:35.451Z,100992.34
2022-11-24T10:54:10.682Z,101009.97
2022-11-24T10:56:41.734Z,101005.06
2022-11-24T10:59:20.554Z,101009.56
2022-11-24T11:01:47.159Z,101000.97
2022-11-24T11:04:31.525Z,101017.84
2022-11-24T11:07:20.799Z,101009.97
2022-11-24T11:09:48.889Z,101014.09
2022-11-24T11:15:25.263Z,101016.72
2022-11-24T11:17:54.559Z,101015.59
2022-11-24T11:20:27.746Z,101010.34
2022-11-24T11:22:55.969Z,101008.84
2022-11-24T11:25:27.577Z,101000.59
2022-11-24T11:28:18.422Z,101003.22
2022-11-24T11:31:20.964Z,101002.47
2022-11-24T11:34:16.675Z,101005.09
2022-11-24T11:36:52.509Z,101011.09
2022-11-24T11:39:31.054Z,101012.97
2022-11-24T11:45:18.251Z,101002.09
2022-11-24T11:48:03.157Z,100997.28
2022-11-24T11:51:22.817Z,100999.13
2022-11-24T11:54:08.610Z,100998.72
2022-11-24T11:56:40.396Z,101000.22
2022-11-24T11:59:06.877Z,101001.00
2022-11-24T12:02:00.421Z,101015.22
2022-11-24T12:04:43.510Z,101020.13
2022-11-24T12:07:45.479Z,101012.59
2022-11-24T12:10:20.063Z,101014.13
2022-11-24T12:12:52.273Z,101003.63
2022-11-24T12:15:46.060Z,101014.88
2022-11-24T12:18:55.985Z,101011.50
2022-11-24T12:21:15.355Z,101006.25
2022-11-24T12:24:23.870Z,101006.63
2022-11-24T12:27:11.043Z,101007.00
2022-11-24T12:29:48.311Z,101009.25
2022-11-24T12:32:57.467Z,101016.00
2022-11-24T12:35:51.140Z,101021.66
2022-11-24T12:38:23.548Z,101020.88
2022-11-24T12:41:25.446Z,101027.63
2022-11-24T12:43:52.994Z,101031.00
2022-11-24T12:46:44.948Z,101028.38
2022-11-24T12:49:34.093Z,101030.63
2022-11-24T12:52:21.495Z,101032.91
2022-11-24T12:54:47.982Z,101031.38
2022-11-24T12:57:32.499Z,101042.28
2022-11-24T13:00:06.197Z,101034.41
2022-11-24T13:02:50.067Z,101040.03
2022-11-24T13:05:33.689Z,101040.41
2022-11-24T13:08:02.846Z,101027.31
2022-11-24T13:10:55.904Z,101034.47
2022-11-24T13:13:27.905Z,101031.53
2022-11-24T13:16:28.557Z,101028.91
2022-11-24T13:18:43.994Z,101030.00
2022-11-24T13:21:32.325Z,101025.84
2022-11-24T13:24:19.980Z,101028.47
2022-11-24T13:26:55.634Z,101023.59
2022-11-24T13:29:28.075Z,101025.81
2022-11-24T13:32:06.439Z,101032.22
2022-11-24T13:34:39.073Z,101019.41
2022-11-24T13:37:34.753Z,101015.72
2022-11-24T13:40:11.516Z,101020.19
2022-11-24T13:43:04.092Z,101031.47
2022-11-24T13:45:39.786Z,101020.94
2022-11-24T13:48:22.303Z,101018.31
2022-11-24T13:50:53.993Z,101014.16
2022-11-24T13:53:46.831Z,101017.22
2022-11-24T13:56:13.204Z,101017.22
2022-11-24T13:58:56.140Z,101019.44
2022-11-24T14:01:25.756Z,101022.81
2022-11-24T14:04:33.308Z,101023.94
2022-11-24T14:07:12.186Z,101017.59
2022-11-24T14:09:45.799Z,101010.47
2022-11-24T14:12:23.159Z,101014.19
2022-11-24T14:14:51.991Z,101017.59
2022-11-24T14:17:28.504Z,101012.31
2022-11-24T14:19:57.114Z,101012.31
2022-11-24T14:22:27.672Z,101002.94
2022-11-24T14:24:57.138Z,101002.94
2022-11-24T14:27:29.827Z,101004.81
2022-11-24T14:29:59.144Z,101000.31
2022-11-24T14:32:25.668Z,100997.69
2022-11-24T14:34:54.039Z,100999.22
2022-11-24T14:37:20.735Z,100997.69
2022-11-24T14:39:47.439Z,101006.72
2022-11-24T14:42:25.301Z,101004.09
2022-11-24T14:44:58.621Z,101011.97
2022-11-24T14:47:32.611Z,101014.59
2022-11-24T14:50:15.249Z,101014.59
2022-11-24T14:52:55.436Z,101013.44
2022-11-24T14:55:35.242Z,101017.22
2022-11-24T14:58:01.895Z,101011.22
2022-11-24T15:00:32.659Z,101013.84
2022-11-24T15:03:01.875Z,101015.72
2022-11-24T15:05:53.489Z,101010.47
2022-11-24T15:08:20.223Z,101015.72
2022-11-24T15:10:47.220Z,101018.66
2022-11-24T15:13:18.719Z,101016.78
2022-11-24T15:15:55.324Z,101019.41
2022-11-24T15:18:30.838Z,101016.78
2022-11-24T15:20:57.466Z,101022.03
2022-11-24T15:23:32.006Z,101021.28
2022-11-24T15:26:01.413Z,101027.66
2022-11-24T15:28:29.725Z,101032.91
2022-11-24T15:31:09.644Z,101032.91
2022-11-24T15:33:36.466Z,101043.41
2022-11-24T15:36:03.134Z,101042.66
2022-11-24T15:38:29.575Z,101040.03
2022-11-24T15:40:59.105Z,101033.25
2022-11-24T15:43:34.675Z,101033.25
2022-11-24T15:46:02.498Z,101032.53
2022-11-24T15:48:29.526Z,101035.16
2022-11-24T15:50:57.717Z,101036.66
2022-11-24T15:53:40.363Z,101033.25
2022-11-24T15:56:12.133Z,101025.78
2022-11-24T15:58:38.895Z,101031.78
2022-11-24T16:01:05.482Z,101025.78
2022-11-24T16:03:46.934Z,101025.41
2022-11-24T16:06:22.165Z,101028.78
2022-11-24T16:08:50.985Z,101029.16
2022-11-24T16:11:17.436Z,101032.50
2022-11-24T16:13:48.535Z,101030.63
2022-11-24T16:16:18.588Z,101025.00
2022-11-24T16:18:45.456Z,101025.38
2022-11-24T16:21:12.217Z,101017.50
2022-11-24T16:23:38.667Z,101025.38
2022-11-24T16:26:05.425Z,101033.59
2022-11-24T16:28:32.063Z,101028.34
2022-11-24T16:30:58.488Z,101033.59
2022-11-24T16:33:25.046Z,101042.56
2022-11-24T16:35:51.501Z,101036.56
2022-11-24T16:38:19.749Z,101040.72
2022-11-24T16:40:54.032Z,101042.56
2022-11-24T16:43:20.520Z,101038.09
2022-11-24T16:45:59.632Z,101039.94
2022-11-24T16:48:26.057Z,101033.94
2022-11-24T16:50:52.452Z,101032.09
2022-11-24T16:53:18.870Z,101023.44
2022-11-24T16:55:56.694Z,101029.84
2022-11-24T16:58:23.182Z,101028.69
2022-11-24T17:00:50.061Z,101030.56
2022-11-24T17:03:16.652Z,101028.69
2022-11-24T17:05:43.058Z,101035.81
2022-11-24T17:08:09.482Z,101034.34
2022-11-24T17:10:39.037Z,101033.19
2022-11-24T17:13:05.451Z,101035.09
2022-11-24T17:15:35.472Z,101026.47
2022-11-24T17:20:50.960Z,101033.59
2022-11-24T17:23:19.673Z,101040.38
2022-11-24T17:25:46.265Z,101042.22
2022-11-24T17:33:35.574Z,101038.13
2022-11-24T17:36:03.896Z,101037.00
2022-11-24T17:38:33.255Z,101048.28
2022-11-24T17:40:59.913Z,101035.16
2022-11-24T17:43:27.497Z,101034.03
2022-11-24T17:45:55.769Z,101033.66
2022-11-24T17:48:22.995Z,101040.41
2022-11-24T17:50:59.060Z,101035.59
2022-11-24T17:53:25.532Z,101045.69
2022-11-24T17:55:51.970Z,101041.59
2022-11-24T17:58:18.607Z,101038.97
2022-11-24T18:00:45.147Z,101037.81
2022-11-24T18:03:11.623Z,101037.06
2022-11-24T18:05:38.065Z,101040.44
2022-11-24T18:08:04.719Z,101044.19
2022-11-24T18:10:34.069Z,101043.47
2022-11-24T18:13:00.518Z,101043.47
2022-11-24T18:15:26.964Z,101036.69
2022-11-24T18:17:53.405Z,101039.66
2022-11-24T18:20:20.375Z,101053.53
2022-11-24T18:25:37.138Z,101050.91
2022-11-24T18:28:03.710Z,101048.28
2022-11-24T18:30:30.161Z,101044.91
2022-11-24T18:32:58.371Z,101039.66
2022-11-24T18:35:24.764Z,101029.53
2022-11-24T18:37:51.215Z,101034.78
2022-11-24T18:40:17.726Z,101032.16
2022-11-24T18:42:44.206Z,101038.91
2022-11-24T18:45:11.104Z,101032.91
2022-11-24T18:47:37.555Z,101029.53
2022-11-24T18:50:04.560Z,101032.16
2022-11-24T18:52:31.818Z,101030.63
2022-11-24T18:55:03.751Z,101034.78
2022-11-24T18:57:31.609Z,101028.41
2022-11-24T18:59:58.719Z,101031.03
2022-11-24T19:02:25.421Z,101021.28
2022-11-24T19:04:51.905Z,101031.47
2022-11-24T19:07:18.643Z,101030.34
2022-11-24T19:09:45.825Z,101025.81
2022-11-24T19:12:12.430Z,101022.47
2022-11-24T19:14:39.320Z,101020.94
2022-11-24T19:17:05.828Z,101019.41
2022-11-24T19:19:34.254Z,101010.78
2022-11-24T19:22:01.788Z,101005.91
2022-11-24T19:24:28.364Z,101008.53
2022-11-24T19:26:54.786Z,101001.78
2022-11-24T19:29:21.250Z,101005.91
2022-11-24T19:31:47.925Z,100999.16
2022-11-24T19:34:15.595Z,101001.03
2022-11-24T19:36:43.335Z,101000.28
2022-11-24T19:39:16.597Z,101002.91
2022-11-24T19:41:43.468Z,101010.78
2022-11-24T19:44:13.590Z,100999.91
2022-11-24T19:46:40.747Z,101003.28
2022-11-24T19:49:08.831Z,101005.16
2022-11-24T19:51:38.479Z,101004.41
2022-11-24T19:54:12.888Z,100999.13
2022-11-24T19:56:39.378Z,100996.91
2022-11-24T19:59:06.430Z,101006.66
2022-11-24T20:01:37.260Z,101023.53
2022-11-24T20:04:07.259Z,101025.78
2022-11-24T20:06:36.825Z,101008.88
2022-11-24T20:09:06.066Z,101008.88
2022-11-24T20:11:32.526Z,101017.88
2022-11-24T20:13:59.332Z,101010.00
2022-11-24T20:16:29.608Z,101010.75
2022-11-24T20:18:58.619Z,101004.75
2022-11-24T20:21:33.074Z,101009.25
2022-11-24T20:24:11.250Z,101003.63
2022-11-24T20:26:43.844Z,101000.66
2022-11-24T20:29:12.134Z,100992.38
2022-11-24T20:31:41.862Z,101003.63
2022-11-24T20:34:09.096Z,100998.38
2022-11-24T20:36:38.303Z,101002.13
2022-11-24T20:39:07.287Z,100995.41
2022-11-24T20:41:35.537Z,101002.88
2022-11-24T20:44:07.029Z,100997.28
2022-11-24T20:46:35.687Z,100995.41
2022-11-24T20:49:06.016Z,100995.41
2022-11-24T20:51:35.660Z,101006.63
2022-11-24T20:54:05.670Z,100992.03
2022-11-24T20:56:35.114Z,100996.13
2022-11-24T20:59:01.912Z,101001.00
2022-11-24T21:01:38.411Z,100998.38
2022-11-24T21:04:08.298Z,100997.63
2022-11-24T21:06:35.650Z,100997.63
2022-11-24T21:09:04.206Z,100987.13
2022-11-24T21:11:31.270Z,100986.38
2022-11-24T21:13:57.726Z,100983.75
2022-11-24T21:16:25.712Z,100987.53
2022-11-24T21:18:56.182Z,100980.38
2022-11-24T21:21:24.596Z,100986.38
2022-11-24T21:23:51.662Z,100975.88
2022-11-24T21:26:19.334Z,100978.50
2022-11-24T21:28:47.378Z,100972.50
2022-11-24T21:31:19.238Z,100977.03
2022-11-24T21:33:50.522Z,100978.91
2022-11-24T21:36:19.523Z,100979.66
2022-11-24T21:38:57.031Z,100975.53
2022-11-24T21:41:25.069Z,100978.16
2022-11-24T21:43:58.616Z,100979.66
2022-11-24T21:46:25.263Z,100978.47
2022-11-24T21:48:51.970Z,100976.59
2022-11-24T21:51:20.204Z,100973.97
2022-11-24T21:53:47.459Z,100973.97
2022-11-24T21:56:17.005Z,100963.84
2022-11-24T21:58:48.568Z,100963.50
2022-11-24T22:01:17.118Z,100970.97
2022-11-24T22:03:43.976Z,100963.84
2022-11-24T22:06:10.562Z,100963.09
2022-11-24T22:08:37.412Z,100961.22
2022-11-24T22:11:06.409Z,100957.47
2022-11-24T22:13:33.266Z,100951.47
2022-11-24T22:16:20.959Z,100949.97
2022-11-24T22:18:48.099Z,100950.72
2022-11-24T22:21:19.800Z,100948.84
2022-11-24T22:23:46.367Z,100949.63
2022-11-24T22:26:15.366Z,100949.63
2022-11-24T22:28:42.900Z,100943.59
2022-11-24T22:31:12.100Z,100954.09
2022-11-24T22:33:39.233Z,100949.63
2022-11-24T22:36:06.568Z,100953.78
2022-11-24T22:38:33.622Z,100958.25
2022-11-24T22:41:01.748Z,100953.00
2022-11-24T22:43:31.699Z,100951.16
2022-11-24T22:46:01.801Z,100949.63
2022-11-24T22:48:28.264Z,100953.78
2022-11-24T22:51:00.175Z,100948.53
2022-11-24T22:53:26.615Z,100946.66
2022-11-24T22:55:53.028Z,100950.03
2022-11-24T22:58:19.439Z,100951.16
2022-11-24T23:00:45.968Z,100949.28
2022-11-24T23:03:12.627Z,100957.50
2022-11-24T23:05:39.182Z,100948.16
2022-11-24T23:08:05.614Z,100954.88
2022-11-24T23:10:32.199Z,100944.78
2022-11-24T23:12:58.674Z,100958.28
2022-11-24T23:15:25.118Z,100956.41
2022-11-24T23:17:51.546Z,100951.16
2022-11-24T23:20:18.020Z,100949.28
2022-11-24T23:22:44.561Z,100951.16
2022-11-24T23:25:10.998Z,100943.28
2022-11-24T23:27:37.438Z,100945.91
2022-11-24T23:30:04.904Z,100941.41
2022-11-24T23:32:31.339Z,100943.28
2022-11-24T23:34:57.757Z,100944.78
2022-11-24T23:37:39.314Z,100941.03
2022-11-24T23:40:10.912Z,100936.53
2022-11-24T23:42:37.363Z,100945.94
2022-11-24T23:45:05.814Z,100950.41
2022-11-24T23:47:32.231Z,100943.31
2022-11-24T23:49:58.700Z,100930.91
2022-11-24T23:52:25.143Z,100929.03
2022-11-24T23:54:54.740Z,100928.28
2022-11-24T23:57:21.172Z,100933.53
2022-11-24T23:59:47.648Z,100931.66
